Harrington Harbour, Canada
Current Conditions -  °F | °C
As of 4:00 PM on Monday 24 Nov 2014 (Local Time) from CWDH Reporting Station
Clear Clear  
Wind Chill: 24°   Ceiling: Unl
Heat Index: 30°   Visibility: 9mi
Dew Point: 17°   Wind: 6mph
Humidity: 57%   Direction: 150°SSE
Pressure: 30.21"   Gusts: NA
Location:  50.52°N, 59.48°W
Report Text: CWDH 242000Z AUTO 15005KT 9SM NSC M01/M08 A3021 RMK SLP233 T10101085 WSI/SWOB
Loading
Personal Weather Stations






























Interactive Weather Map New forecast layout! Learn more

10-Day Weather Forecast

Advertisements
Track Severe Weather on mobile